Back to top

Jackson, WY weather

Jackson Hole Airport (AWOS), Jackson, WY: 8/02/2021 01:56
Visibility10 statute milesclear sky
View 7-Day Forecast
Area Summary
Sky/CloudsSky Clear
Weather [last 24 hours]None
Pressure30.37 in.Hg (1029 hPa)
Dew Point50 °F (10 °C)
Relative Humidity74.9 %
Temperature57.9 °F (14.4 °C)red thermometer
Reading TimeMinimum to Maximum Temperature
6-hr ending 8/1@23:5666 °F to 82.9 °F (18.9 °C to 28.3 °C)
6-hr ending 8/1@17:5675 °F to 84 °F (23.9 °C to 28.9 °C)
6-hr ending 8/1@11:5655 °F to 75.9 °F (12.8 °C to 24.4 °C)
6-hr ending 8/1@05:5657 °F to 61 °F (13.9 °C to 16.1 °C)
24-hr ending 8/2@00:5655 °F to 84 °F (12.8 °C to 28.9 °C)
Wind4.6 MPH (4 KT) green arrow pointing at 0 degrees
Wind FromNorth (350 Degrees)
Twilight Begins05:43Sunshine Yesterday
Sunrise06:15N/A
Sunset20:42
Twilight Ends21:15
METARKJAC 020756Z AUTO 35004KT 10SM CLR 14/10 A3037 RMK AO2 SLP214 T01440100
Tags: